Darstellungsparameter: Aktuell verwendete Einstellungen:
Skalierung der Graphiken ... ?
xyx+y,   Skalierungsfaktor:      Skalierung: Modus: x, Faktor: 1
Darstellungszeitraum ... ?
Vom - - bis: - -   Zeitraum: 17.05.2022 - 17.05.2022
Min/Max/Avg-Anzeige ... ?
Zeige MMA aktuell
Zeige MMA Monat
Zeige MMA alles
Zeige --A aktuell
Zeige --A Monat
Zeige --A alles
Keine MMA-Anzeige
MMA:
Keine MMA-Graphiken
MMA-Basis: 17.05.2022 - 17.05.2022
Quicknavigation für Darstellung... ?
Tage:      1T, 2T, 3T, 5T -1T -2T -3T -5T +1T +2T +3T +5T
Wochen: 1W, 2W, 3W -1W -2W -3W +1W +2W +3W
Monate: 1M, 3M, 6M -1M -3M -6M +1M +3M +6M
Jahre:    1J, 3J, 5J, 10J -1J -3J -5J -10J +1J +3J +5J +10J
Nutze für die Darstellung ... ?
Originaldaten oder Mittelwerte auf ...
Stundenbasis Tagesbasis Wochenbasis
Monatsbasis Jahresbasis      Datenbasis: Original-Daten
Darstellen als:
Statistik (Auto) Statistik J:M      Darstellung:

Der gewünschte Datumsbereich war nicht gültig/verfügbar und wurde korrigiert....
Das angegebene Enddatum (03.10.2022 23:59:59) liegt in der Zukunft.
Das angegebene Startdatum (27.09.2022 00:00:00) liegt in der Zukunft.


Zur Graphik,    zurück zur Übersicht aller Sensoren.
 
Tabellarische Datenbersicht: ?
 
Sensor: Nr:Datum:Temp:Abs-Feuchte:Windchill:Wind:
Aussen-T/F 1 17-05-2022 02:00:00 13.6 C 11.18 g/m*3 13.6 C 0 km/h
2 17-05-2022 02:05:00 13.6 C 11.18 g/m*3 13.6 C 0 km/h
3 17-05-2022 02:10:00 13.5 C 11.11 g/m*3 13.5 C 1.6 km/h
4 17-05-2022 02:15:00 13.4 C 11.04 g/m*3 13.4 C 3.2 km/h
5 17-05-2022 02:20:00 13.5 C 11.11 g/m*3 13.5 C 0 km/h
6 17-05-2022 02:25:00 13.6 C 11.3 g/m*3 13.6 C 3.2 km/h
7 17-05-2022 02:30:00 13.7 C 11.37 g/m*3 13.7 C 0 km/h
8 17-05-2022 02:35:00 13.7 C 11.25 g/m*3 13.7 C 0 km/h
9 17-05-2022 02:40:00 13.7 C 11.25 g/m*3 13.7 C 0 km/h
10 17-05-2022 02:45:00 13.7 C 11.37 g/m*3 13.7 C 0 km/h
11 17-05-2022 02:50:00 13.7 C 11.37 g/m*3 13.7 C 0 km/h
12 17-05-2022 02:55:00 13.8 C 11.44 g/m*3 13.8 C 0 km/h
13 17-05-2022 03:00:00 13.8 C 11.44 g/m*3 13.8 C 0 km/h
14 17-05-2022 03:05:00 13.8 C 11.44 g/m*3 13.8 C 0 km/h
15 17-05-2022 03:10:00 13.8 C 11.44 g/m*3 13.8 C 0 km/h
16 17-05-2022 03:15:00 13.8 C 11.44 g/m*3 13.8 C 1.6 km/h
17 17-05-2022 03:20:00 13.8 C 11.44 g/m*3 13.8 C 1.6 km/h
18 17-05-2022 03:25:00 13.8 C 11.44 g/m*3 13.8 C 0 km/h
19 17-05-2022 03:30:00 13.8 C 11.44 g/m*3 13.8 C 0 km/h
20 17-05-2022 03:35:00 13.8 C 11.44 g/m*3 13.8 C 3.2 km/h
21 17-05-2022 03:40:00 13.7 C 11.37 g/m*3 13.7 C 1.6 km/h
22 17-05-2022 03:45:00 13.7 C 11.37 g/m*3 13.7 C 0 km/h
23 17-05-2022 03:50:00 13.7 C 11.37 g/m*3 13.7 C 3.2 km/h
24 17-05-2022 03:55:00 13.6 C 11.3 g/m*3 13.6 C 3.2 km/h
25 17-05-2022 04:00:00 13.6 C 11.3 g/m*3 13.6 C 6.4 km/h
Sensor: Nr:Datum:Temp:Abs-Feuchte:Windchill:Wind:
Aussen-T/F 26 17-05-2022 04:05:00 13.5 C 11.23 g/m*3 13.5 C 0 km/h
27 17-05-2022 04:10:00 13.5 C 11.11 g/m*3 13.5 C 1.6 km/h
28 17-05-2022 04:15:00 13.4 C 11.16 g/m*3 13.4 C 0 km/h
29 17-05-2022 04:20:00 13.3 C 11.09 g/m*3 13.3 C 0 km/h
30 17-05-2022 04:25:00 13.2 C 10.91 g/m*3 13.2 C 0 km/h
31 17-05-2022 04:30:00 13.2 C 10.91 g/m*3 13.2 C 0 km/h
32 17-05-2022 04:35:00 13.1 C 10.84 g/m*3 13.1 C 0 km/h
33 17-05-2022 04:40:00 13.1 C 10.95 g/m*3 13.1 C 0 km/h
34 17-05-2022 04:45:00 13.1 C 10.95 g/m*3 13.1 C 0 km/h
35 17-05-2022 04:50:00 13.1 C 10.95 g/m*3 13.1 C 0 km/h
36 17-05-2022 04:55:00 13.1 C 10.95 g/m*3 13.1 C 0 km/h
37 17-05-2022 05:00:00 13.1 C 10.95 g/m*3 13.1 C 4.8 km/h
38 17-05-2022 05:05:00 13.1 C 10.95 g/m*3 13.1 C 1.6 km/h
39 17-05-2022 05:10:00 13.1 C 10.95 g/m*3 13.1 C 3.2 km/h
40 17-05-2022 05:15:00 13 C 10.89 g/m*3 13 C 0 km/h
41 17-05-2022 05:20:00 13 C 10.89 g/m*3 13 C 1.6 km/h
42 17-05-2022 05:25:00 12.9 C 10.82 g/m*3 12.9 C 0 km/h
43 17-05-2022 05:30:00 12.9 C 10.82 g/m*3 12.9 C 0 km/h
44 17-05-2022 05:35:00 12.9 C 10.82 g/m*3 12.9 C 0 km/h
45 17-05-2022 05:40:00 12.8 C 10.75 g/m*3 12.8 C 1.6 km/h
46 17-05-2022 05:45:00 12.8 C 10.75 g/m*3 12.8 C 0 km/h
47 17-05-2022 05:50:00 12.8 C 10.75 g/m*3 12.8 C 0 km/h
48 17-05-2022 05:55:00 12.7 C 10.69 g/m*3 12.7 C 0 km/h
49 17-05-2022 06:00:00 12.7 C 10.69 g/m*3 12.7 C 0 km/h
50 17-05-2022 06:05:00 12.7 C 10.69 g/m*3 12.7 C 0 km/h
Sensor: Nr:Datum:Temp:Abs-Feuchte:Windchill:Wind:
Aussen-T/F 51 17-05-2022 06:10:00 12.7 C 10.69 g/m*3 12.7 C 0 km/h
52 17-05-2022 06:15:00 12.8 C 10.75 g/m*3 12.8 C 0 km/h
53 17-05-2022 06:20:00 12.8 C 10.75 g/m*3 12.8 C 0 km/h
54 17-05-2022 06:25:00 12.8 C 10.75 g/m*3 12.8 C 0 km/h
55 17-05-2022 06:30:00 12.8 C 10.75 g/m*3 12.8 C 0 km/h
56 17-05-2022 06:35:00 12.9 C 10.82 g/m*3 12.9 C 0 km/h
57 17-05-2022 06:40:00 12.9 C 10.82 g/m*3 12.9 C 1.6 km/h
58 17-05-2022 06:45:00 12.9 C 10.82 g/m*3 12.9 C 3.2 km/h
59 17-05-2022 06:50:00 12.9 C 10.82 g/m*3 12.9 C 3.2 km/h
60 17-05-2022 06:55:00 12.8 C 10.75 g/m*3 12.8 C 4.8 km/h
61 17-05-2022 07:00:00 12.8 C 10.75 g/m*3 12.8 C 3.2 km/h
62 17-05-2022 07:05:00 12.8 C 10.75 g/m*3 12.8 C 1.6 km/h
63 17-05-2022 07:10:00 12.9 C 10.82 g/m*3 12.9 C 4.8 km/h
64 17-05-2022 07:15:00 12.9 C 10.82 g/m*3 12.9 C 3.2 km/h
65 17-05-2022 07:20:00 13 C 10.89 g/m*3 13 C 3.2 km/h
66 17-05-2022 07:25:00 13.1 C 10.95 g/m*3 13.1 C 0 km/h
67 17-05-2022 07:30:00 13 C 10.89 g/m*3 13 C 3.2 km/h
68 17-05-2022 07:35:00 13.1 C 10.95 g/m*3 13.1 C 3.2 km/h
69 17-05-2022 07:40:00 13.1 C 10.95 g/m*3 13.1 C 1.6 km/h
70 17-05-2022 07:45:00 13.2 C 11.02 g/m*3 13.2 C 1.6 km/h
71 17-05-2022 07:50:00 13.2 C 11.02 g/m*3 13.2 C 0 km/h
72 17-05-2022 07:55:00 13.2 C 11.02 g/m*3 13.2 C 0 km/h
73 17-05-2022 08:00:00 13.2 C 11.02 g/m*3 13.2 C 0 km/h
74 17-05-2022 08:05:00 13.3 C 11.09 g/m*3 13.3 C 1.6 km/h
75 17-05-2022 08:10:00 13.4 C 11.16 g/m*3 13.4 C 0 km/h
Sensor: Nr:Datum:Temp:Abs-Feuchte:Windchill:Wind:
Aussen-T/F 76 17-05-2022 08:15:00 13.5 C 11.23 g/m*3 13.5 C 0 km/h
77 17-05-2022 08:20:00 13.7 C 11.37 g/m*3 13.7 C 0 km/h
78 17-05-2022 08:25:00 13.8 C 11.56 g/m*3 13.8 C 0 km/h
79 17-05-2022 08:30:00 13.8 C 11.44 g/m*3 13.8 C 0 km/h
80 17-05-2022 08:35:00 13.9 C 11.51 g/m*3 13.9 C 1.6 km/h
81 17-05-2022 08:40:00 13.9 C 11.51 g/m*3 13.9 C 1.6 km/h
82 17-05-2022 08:45:00 13.9 C 11.51 g/m*3 13.9 C 0 km/h
83 17-05-2022 08:50:00 13.9 C 11.51 g/m*3 13.9 C 0 km/h
84 17-05-2022 08:55:00 14 C 11.58 g/m*3 14 C 0 km/h
85 17-05-2022 09:00:00 14.1 C 11.65 g/m*3 14.1 C 0 km/h
86 17-05-2022 09:05:00 14.2 C 11.72 g/m*3 14.2 C 0 km/h
87 17-05-2022 09:10:00 14.2 C 11.72 g/m*3 14.2 C 0 km/h
88 17-05-2022 09:15:00 14.3 C 11.79 g/m*3 14.3 C 0 km/h
89 17-05-2022 09:20:00 14.5 C 11.94 g/m*3 14.5 C 0 km/h
90 17-05-2022 09:25:00 14.7 C 12.09 g/m*3 14.7 C 0 km/h
91 17-05-2022 09:30:00 14.8 C 12.16 g/m*3 14.8 C 0 km/h
92 17-05-2022 09:35:00 15.1 C 12.39 g/m*3 15.1 C 0 km/h
93 17-05-2022 09:40:00 15.3 C 12.54 g/m*3 15.3 C 0 km/h
94 17-05-2022 09:45:00 15.4 C 12.48 g/m*3 15.4 C 0 km/h
95 17-05-2022 09:50:00 15.6 C 12.63 g/m*3 15.6 C 0 km/h
96 17-05-2022 09:55:00 15.8 C 12.79 g/m*3 15.8 C 0 km/h
97 17-05-2022 10:00:00 16.1 C 13.02 g/m*3 16.1 C 0 km/h
98 17-05-2022 10:05:00 16.3 C 13.04 g/m*3 16.3 C 0 km/h
99 17-05-2022 10:10:00 16.4 C 13.12 g/m*3 16.4 C 0 km/h
100 17-05-2022 10:15:00 16.6 C 13.14 g/m*3 16.6 C 0 km/h
Sensor: Nr:Datum:Temp:Abs-Feuchte:Windchill:Wind:
Aussen-T/F 101 17-05-2022 10:20:00 16.9 C 13.23 g/m*3 16.9 C 0 km/h
102 17-05-2022 10:25:00 17.2 C 13.47 g/m*3 17.2 C 0 km/h
103 17-05-2022 10:30:00 17.4 C 13.49 g/m*3 17.4 C 0 km/h
104 17-05-2022 10:35:00 17.7 C 13.43 g/m*3 17.7 C 0 km/h
105 17-05-2022 10:40:00 17.9 C 13.44 g/m*3 17.9 C 0 km/h
106 17-05-2022 10:45:00 18.3 C 13.76 g/m*3 18.3 C 0 km/h
107 17-05-2022 10:50:00 18.6 C 14.01 g/m*3 18.6 C 0 km/h
108 17-05-2022 10:55:00 19 C 14.18 g/m*3 19 C 0 km/h
109 17-05-2022 11:00:00 19.3 C 13.93 g/m*3 19.3 C 0 km/h
110 17-05-2022 11:05:00 19.6 C 14.18 g/m*3 19.6 C 0 km/h
111 17-05-2022 11:10:00 19.8 C 14.01 g/m*3 19.8 C 0 km/h
112 17-05-2022 11:15:00 20 C 14 g/m*3 20 C 0 km/h
113 17-05-2022 11:20:00 20.3 C 13.89 g/m*3 20.3 C 0 km/h
114 17-05-2022 11:25:00 20.4 C 13.8 g/m*3 20.4 C 0 km/h
115 17-05-2022 11:30:00 20.7 C 14.04 g/m*3 20.7 C 0 km/h
116 17-05-2022 11:35:00 20.9 C 14.02 g/m*3 20.9 C 0 km/h
117 17-05-2022 11:40:00 21.2 C 14.08 g/m*3 21.2 C 0 km/h
118 17-05-2022 11:45:00 21.4 C 13.87 g/m*3 21.4 C 0 km/h
119 17-05-2022 11:50:00 21.6 C 14.03 g/m*3 21.6 C 0 km/h
120 17-05-2022 11:55:00 21.7 C 13.93 g/m*3 21.7 C 0 km/h
121 17-05-2022 12:00:00 21.8 C 13.81 g/m*3 21.8 C 0 km/h
122 17-05-2022 12:05:00 21.9 C 13.7 g/m*3 21.9 C 0 km/h
123 17-05-2022 12:10:00 22.1 C 13.86 g/m*3 22.1 C 0 km/h
124 17-05-2022 12:15:00 22.3 C 13.82 g/m*3 22.3 C 0 km/h
125 17-05-2022 12:20:00 22.6 C 13.86 g/m*3 22.6 C 0 km/h
Sensor: Nr:Datum:Temp:Abs-Feuchte:Windchill:Wind:
Aussen-T/F 126 17-05-2022 12:25:00 22.9 C 13.69 g/m*3 22.9 C 9.7 km/h
127 17-05-2022 12:30:00 23.2 C 13.72 g/m*3 23.2 C 6.4 km/h
128 17-05-2022 12:35:00 23.4 C 13.46 g/m*3 23.4 C 4.8 km/h
129 17-05-2022 12:40:00 23.6 C 13.4 g/m*3 23.6 C 1.6 km/h
130 17-05-2022 12:45:00 23.8 C 12.69 g/m*3 23.8 C 8.1 km/h
131 17-05-2022 12:50:00 23.8 C 13.12 g/m*3 23.8 C 6.4 km/h
132 17-05-2022 12:55:00 24.1 C 12.91 g/m*3 24.1 C 6.4 km/h
133 17-05-2022 13:00:00 24.1 C 12.69 g/m*3 24.1 C 4.8 km/h
134 17-05-2022 13:05:00 23.9 C 12.11 g/m*3 23.9 C 8.1 km/h
135 17-05-2022 13:10:00 23.9 C 12.11 g/m*3 23.9 C 3.2 km/h
136 17-05-2022 13:15:00 23.9 C 12.11 g/m*3 23.9 C 6.4 km/h
137 17-05-2022 13:20:00 24.1 C 12.47 g/m*3 24.1 C 6.4 km/h
138 17-05-2022 13:25:00 24.3 C 12.61 g/m*3 24.3 C 6.4 km/h
139 17-05-2022 13:30:00 24.4 C 12.24 g/m*3 24.4 C 6.4 km/h
140 17-05-2022 13:35:00 24.4 C 12.24 g/m*3 24.4 C 6.4 km/h
141 17-05-2022 13:40:00 24.3 C 12.17 g/m*3 24.3 C 6.4 km/h
142 17-05-2022 13:45:00 24.3 C 12.17 g/m*3 24.3 C 6.4 km/h
143 17-05-2022 13:50:00 24.3 C 12.17 g/m*3 24.3 C 6.4 km/h
144 17-05-2022 13:55:00 24.3 C 12.83 g/m*3 24.3 C 9.7 km/h
145 17-05-2022 14:00:00 24.3 C 12.39 g/m*3 24.3 C 4.8 km/h
146 17-05-2022 14:05:00 24.6 C 12.15 g/m*3 24.6 C 6.4 km/h
147 17-05-2022 14:10:00 24.7 C 12.22 g/m*3 24.7 C 8.1 km/h
148 17-05-2022 14:15:00 25.1 C 12.5 g/m*3 25.1 C 3.2 km/h
149 17-05-2022 14:20:00 25.4 C 12.71 g/m*3 25.4 C 3.2 km/h
150 17-05-2022 14:25:00 25.8 C 12.28 g/m*3 25.8 C 8.1 km/h

Legende:
   Min
   Max


Maximal/Minimal-Werte vom 17.05.2022 - 17.05.2022

Sensor Min Max Avg
Temp
(Aussen-T/F)
12.7 °C
17-05-2022  05:55:00
25.8 °C
17-05-2022  14:25:00
16.44 °C
Abs-Feuchte
(Aussen-T/F)
10.69 g/m*3
17-05-2022  05:55:00
14.18 g/m*3
17-05-2022  10:55:00
11.85 g/m*3
Windchill
(Aussen-T/F)
12.7 C
17-05-2022  05:55:00
25.8 C
17-05-2022  14:25:00
16.33 C

Die Daten stammen von einer Davis Vantage Pro 2 Wetter-Station und werden unter Linux mit der Software wview2wettercgi und aufbereitet. Alle Angaben erfolgen ohne Gewähr für ihre Vollständigkeit oder Richtigkeit.
Kontakt: Rainer Krienke krienke@uni-koblenz.de . Meine Webseiten an der Uni Koblenz oder privat.
Version: $Revision: 0.78 $